Aérodrome :
LOGIN :

S'inscrire | Disclaimer

   EN    FR    IT 

 










Légende :    VFR   VFR Marginal   IFR   IFR Intensif   IFR Très Intensif
Visi : 
Plafond : 
>= 8 km
>= 3000ft
5 à 8 km
1000 à 3000 ft
1500m à 5 km
500 à 1000 ft
800 à 1500m
200 à 500 ft
< 800m
< 200 ft
Symboles :   Orages  Brouillard  Fortes neiges  Fortes précipitations  Vent > 20 kt
SIGMETs :   Divers  Orages  Givrage  Turbulence  Onde Orograph.  Cendres Volcan.






- Altitude de l'aérodrome : 187 ft


ETNW - Wunstorf AB

DERNIER METAR :
  • 231220Z 26004KT 9999 FEW040 BKN060 08/M02 Q1018 BLU BLU+ TEMPO BLU

METARs EXPIRÉS :
  • 231120Z 26004KT 9999 FEW040 BKN060 08/M02 Q1018 BLU BLU+ TEMPO BLU
  • 231020Z 31004KT 9999 BKN037 08/M02 Q1019 BLU BLU+ TEMPO BLU
  • 230920Z 31003KT 9999 SCT036 08/M01 Q1020 BLU+BLU+
  • 230820Z 15002KT 9999 SCT028 07/00 Q1020 BLU+BLU+

TAF TAF ETNW
Valide du 23 à 11h jusqu'au 24 à 11h UTC


231012Z 2311/2411 28005KT 9999 NSW BKN050 SCT240
BECMG 2318/2320 20005KT 9999 NSW BKN030
TEMPO 2323/2409 22005KT 4000 -RA BKN008
TEMPO 2409/2411 24010G20KT 4000 SHRA BKN012TCU



MET'MAP, la Météo Aéronautique d'un coup d'oeil ! - Copyright ORBIFLY Décembre 2007 - Disclaimer

ORBIFLY MET'MAP TEAM :

Programmation & Développement : Alexandra Zaïnal
Sur une idée originale de : Baudouin d'Aumeries
Soutien technique & logistique : Manuel Goepfert
Assistance : Marc-Olivier Méhu




SOURCES & CREDITS :

   NOAA